createdAt,value
2022-11-09T00:03:25.378Z,7.90
2022-11-09T00:07:28.087Z,7.90
2022-11-09T00:11:28.296Z,7.90
2022-11-09T00:15:28.438Z,7.90
2022-11-09T00:19:29.359Z,7.80
2022-11-09T00:23:31.987Z,7.80
2022-11-09T00:27:32.135Z,7.80
2022-11-09T00:31:32.212Z,7.70
2022-11-09T00:35:32.357Z,7.70
2022-11-09T00:39:35.043Z,7.60
2022-11-09T00:43:36.000Z,7.60
2022-11-09T00:47:36.433Z,7.60
2022-11-09T00:51:36.621Z,7.70
2022-11-09T00:55:39.378Z,7.60
2022-11-09T00:59:39.556Z,7.60
2022-11-09T01:03:40.212Z,7.50
2022-11-09T01:07:41.771Z,7.50
2022-11-09T01:11:44.508Z,7.50
2022-11-09T01:15:46.420Z,7.50
2022-11-09T01:19:46.742Z,7.40
2022-11-09T01:23:48.139Z,7.40
2022-11-09T01:27:50.858Z,7.40
2022-11-09T01:31:51.143Z,7.40
2022-11-09T01:35:51.260Z,7.40
2022-11-09T01:39:51.410Z,7.30
2022-11-09T01:44:13.922Z,7.30
2022-11-09T01:48:20.739Z,7.30
2022-11-09T01:52:30.435Z,7.40
2022-11-09T01:56:32.806Z,7.40
2022-11-09T02:00:39.247Z,7.50
2022-11-09T02:04:46.021Z,7.40
2022-11-09T02:08:48.719Z,7.30
2022-11-09T02:12:49.938Z,7.30
2022-11-09T02:16:53.533Z,7.30
2022-11-09T02:21:00.054Z,7.30
2022-11-09T02:25:00.246Z,7.30
2022-11-09T02:29:04.958Z,7.30
2022-11-09T02:33:06.113Z,7.30
2022-11-09T02:37:09.413Z,7.30
2022-11-09T02:41:12.205Z,7.30
2022-11-09T02:45:14.031Z,7.20
2022-11-09T02:49:15.659Z,7.10
2022-11-09T02:53:18.747Z,7.10
2022-11-09T02:57:19.252Z,7.10
2022-11-09T03:01:19.544Z,7.10
2022-11-09T03:05:20.113Z,7.00
2022-11-09T03:09:23.016Z,6.90
2022-11-09T03:13:24.260Z,6.90
2022-11-09T03:17:27.356Z,6.80
2022-11-09T03:21:28.034Z,6.80
2022-11-09T03:25:31.257Z,6.70
2022-11-09T03:29:33.545Z,6.70
2022-11-09T03:33:34.903Z,6.70
2022-11-09T03:37:35.339Z,6.80
2022-11-09T03:41:39.413Z,6.90
2022-11-09T03:45:42.137Z,6.90
2022-11-09T03:49:42.222Z,7.00
2022-11-09T03:53:42.333Z,7.00
2022-11-09T03:57:46.918Z,7.00
2022-11-09T04:01:48.209Z,7.00
2022-11-09T04:05:48.509Z,6.90
2022-11-09T04:09:48.635Z,6.80
2022-11-09T04:13:51.394Z,6.80
2022-11-09T04:17:58.915Z,6.80
2022-11-09T04:21:59.089Z,6.80
2022-11-09T04:26:02.071Z,6.80
2022-11-09T04:30:04.760Z,6.70
2022-11-09T04:34:04.902Z,6.70
2022-11-09T04:38:08.440Z,6.60
2022-11-09T04:42:09.210Z,6.60
2022-11-09T04:46:11.981Z,6.50
2022-11-09T04:50:13.483Z,6.50
2022-11-09T04:54:14.459Z,6.60
2022-11-09T04:58:14.923Z,6.70
2022-11-09T05:02:17.793Z,6.80
2022-11-09T05:06:30.717Z,6.90
2022-11-09T05:10:31.396Z,6.90
2022-11-09T05:14:31.550Z,6.90
2022-11-09T05:18:34.370Z,7.00
2022-11-09T05:22:47.011Z,6.90
2022-11-09T05:26:47.298Z,6.90
2022-11-09T05:30:47.534Z,6.80
2022-11-09T05:34:50.211Z,6.80
2022-11-09T05:38:50.714Z,6.70
2022-11-09T05:42:51.212Z,6.70
2022-11-09T05:46:52.040Z,6.70
2022-11-09T05:50:54.767Z,6.70
2022-11-09T05:54:57.722Z,6.70
2022-11-09T05:58:58.109Z,6.70
2022-11-09T06:03:04.909Z,6.70
2022-11-09T06:07:08.549Z,6.70
2022-11-09T06:11:12.025Z,6.70
2022-11-09T06:15:12.971Z,6.70
2022-11-09T06:19:13.281Z,6.70
2022-11-09T06:23:16.181Z,6.70
2022-11-09T06:27:16.347Z,6.70
2022-11-09T06:31:20.705Z,6.70
2022-11-09T06:35:21.002Z,6.70
2022-11-09T06:39:23.698Z,6.80
2022-11-09T06:43:24.167Z,6.90
2022-11-09T06:47:24.293Z,6.90
2022-11-09T06:51:24.475Z,6.90
2022-11-09T06:55:27.498Z,6.90
2022-11-09T06:59:27.706Z,7.00
2022-11-09T07:03:29.807Z,7.10
2022-11-09T07:07:30.024Z,7.30
2022-11-09T07:11:33.008Z,7.50
2022-11-09T07:15:33.888Z,7.70
2022-11-09T07:19:34.164Z,7.80
2022-11-09T07:23:34.288Z,7.90
2022-11-09T07:27:38.108Z,8.00
2022-11-09T07:31:38.304Z,8.00
2022-11-09T07:35:38.934Z,8.10
2022-11-09T07:39:39.013Z,8.00
2022-11-09T07:43:41.662Z,8.00
2022-11-09T07:47:41.877Z,8.20
2022-11-09T07:51:42.424Z,8.20
2022-11-09T07:55:43.078Z,8.30
2022-11-09T07:59:46.160Z,8.40
2022-11-09T08:03:46.381Z,8.40
2022-11-09T08:07:46.653Z,8.40
2022-11-09T08:11:46.775Z,8.40
2022-11-09T08:15:49.864Z,8.40
2022-11-09T08:19:50.147Z,8.40
2022-11-09T08:23:50.781Z,8.50
2022-11-09T08:27:51.464Z,8.70
2022-11-09T08:31:55.341Z,8.80
2022-11-09T08:35:55.610Z,9.00
2022-11-09T08:39:55.693Z,9.00
2022-11-09T08:43:55.791Z,9.10
2022-11-09T08:48:04.291Z,9.10
2022-11-09T08:52:04.992Z,9.00
2022-11-09T08:56:05.284Z,8.90
2022-11-09T09:00:07.794Z,9.00
2022-11-09T09:04:13.726Z,9.10
2022-11-09T09:08:15.694Z,9.20
2022-11-09T09:12:15.888Z,9.30
2022-11-09T09:16:19.087Z,9.10
2022-11-09T09:20:22.175Z,8.90
2022-11-09T09:24:22.530Z,8.90
2022-11-09T09:28:22.877Z,8.90
2022-11-09T09:32:23.259Z,9.00
2022-11-09T09:36:28.632Z,9.20
2022-11-09T09:40:37.616Z,9.40
2022-11-09T09:44:46.259Z,9.50
2022-11-09T09:48:54.444Z,9.70
2022-11-09T09:53:23.232Z,9.80
2022-11-09T09:57:28.790Z,10.10
2022-11-09T10:01:40.086Z,10.20
2022-11-09T10:05:57.487Z,10.20
2022-11-09T10:10:20.378Z,10.10
2022-11-09T10:15:02.648Z,10.20
2022-11-09T10:19:29.159Z,10.30
2022-11-09T10:24:03.392Z,10.60
2022-11-09T10:28:13.563Z,10.70
2022-11-09T10:32:19.274Z,10.90
2022-11-09T10:36:30.279Z,10.90
2022-11-09T10:40:36.976Z,10.70
2022-11-09T10:44:58.815Z,10.50
2022-11-09T10:49:24.513Z,10.40
2022-11-09T10:53:43.325Z,10.40
2022-11-09T10:58:06.431Z,10.50
2022-11-09T11:02:53.364Z,10.90
2022-11-09T11:07:21.601Z,11.50
2022-11-09T11:11:42.849Z,12.20
2022-11-09T11:16:02.347Z,13.50
2022-11-09T11:20:36.330Z,14.60
2022-11-09T11:24:59.763Z,15.30
2022-11-09T11:29:34.240Z,15.20
2022-11-09T11:33:53.309Z,15.60
2022-11-09T11:38:30.347Z,15.20
2022-11-09T11:43:13.892Z,14.50
2022-11-09T11:47:48.226Z,14.10
2022-11-09T11:52:20.127Z,13.90
2022-11-09T11:56:46.826Z,13.80
2022-11-09T12:01:27.243Z,13.90
2022-11-09T12:06:44.223Z,15.00
2022-11-09T12:11:18.553Z,16.30
2022-11-09T12:15:56.540Z,15.90
2022-11-09T12:20:33.988Z,15.90
2022-11-09T12:25:03.084Z,16.00
2022-11-09T12:29:25.435Z,16.60
2022-11-09T12:33:53.640Z,16.80
2022-11-09T12:38:21.222Z,16.70
2022-11-09T12:42:47.790Z,16.70
2022-11-09T12:47:15.553Z,16.30
2022-11-09T12:51:38.260Z,16.00
2022-11-09T12:56:03.690Z,15.90
2022-11-09T13:00:55.370Z,15.40
2022-11-09T13:05:33.393Z,16.90
2022-11-09T13:10:02.663Z,17.20
2022-11-09T13:14:45.023Z,17.60
2022-11-09T13:19:06.180Z,18.10
2022-11-09T13:29:17.020Z,17.50
2022-11-09T13:33:39.696Z,17.50
2022-11-09T13:38:00.566Z,18.00
2022-11-09T13:42:32.138Z,18.50
2022-11-09T13:46:53.889Z,18.60
2022-11-09T13:51:18.558Z,18.10
2022-11-09T13:55:41.244Z,17.90
2022-11-09T14:00:03.277Z,17.30
2022-11-09T14:04:26.840Z,16.40
2022-11-09T14:08:49.428Z,15.80
2022-11-09T14:13:32.494Z,15.50
2022-11-09T14:18:08.008Z,15.20
2022-11-09T14:22:26.827Z,15.00
2022-11-09T14:27:18.084Z,14.40
2022-11-09T14:31:46.599Z,13.90
2022-11-09T14:36:07.799Z,13.50
2022-11-09T14:40:29.787Z,13.10
2022-11-09T14:44:52.623Z,13.00
2022-11-09T14:49:14.962Z,12.80
2022-11-09T14:53:37.808Z,12.60
2022-11-09T14:57:59.385Z,12.40
2022-11-09T15:02:23.045Z,12.30
2022-11-09T15:06:51.031Z,12.10
2022-11-09T15:11:10.476Z,12.00
2022-11-09T15:15:33.108Z,11.90
2022-11-09T15:19:57.732Z,11.80
2022-11-09T15:24:20.175Z,11.70
2022-11-09T15:28:50.739Z,11.60
2022-11-09T15:33:28.924Z,11.50
2022-11-09T15:37:56.487Z,11.40
2022-11-09T15:42:15.729Z,11.20
2022-11-09T15:46:40.200Z,11.10
2022-11-09T15:50:59.796Z,11.10
2022-11-09T15:55:25.832Z,11.00
2022-11-09T15:59:44.823Z,11.00
2022-11-09T16:04:03.423Z,11.00
2022-11-09T16:08:22.737Z,10.90
2022-11-09T16:12:46.533Z,10.80
2022-11-09T16:17:05.960Z,10.70
2022-11-09T16:21:24.823Z,10.60
2022-11-09T16:25:44.835Z,10.40
2022-11-09T16:30:07.415Z,10.40
2022-11-09T16:34:26.001Z,10.30
2022-11-09T16:38:48.523Z,10.30
2022-11-09T16:43:07.394Z,10.30
2022-11-09T16:47:28.642Z,10.30
2022-11-09T16:51:47.012Z,10.20
2022-11-09T16:56:05.744Z,10.10
2022-11-09T17:00:33.749Z,10.00
2022-11-09T17:05:07.381Z,9.90
2022-11-09T17:09:26.020Z,9.90
2022-11-09T17:13:45.051Z,9.90
2022-11-09T17:18:03.676Z,9.80
2022-11-09T17:22:25.447Z,9.80
2022-11-09T17:26:44.071Z,9.80
2022-11-09T17:31:02.847Z,9.80
2022-11-09T17:35:21.463Z,9.80
2022-11-09T17:39:42.695Z,9.70
2022-11-09T17:44:04.151Z,9.60
2022-11-09T17:48:23.122Z,9.60
2022-11-09T17:52:42.206Z,9.50
2022-11-09T17:57:04.080Z,9.50
2022-11-09T18:01:24.483Z,9.40
2022-11-09T18:05:45.473Z,9.40
2022-11-09T18:10:04.213Z,9.30
2022-11-09T18:14:25.622Z,9.20
2022-11-09T18:18:44.713Z,9.20
2022-11-09T18:23:03.214Z,9.20
2022-11-09T18:27:26.077Z,9.20
2022-11-09T18:31:52.080Z,9.20
2022-11-09T18:36:15.772Z,9.20
2022-11-09T18:40:34.958Z,9.10
2022-11-09T18:44:53.744Z,9.10
2022-11-09T18:49:15.413Z,9.00
2022-11-09T18:53:39.300Z,9.00
2022-11-09T18:57:57.875Z,9.00
2022-11-09T19:02:17.192Z,9.00
2022-11-09T19:06:38.743Z,8.90
2022-11-09T19:10:57.453Z,8.90
2022-11-09T19:15:16.122Z,8.80
2022-11-09T19:19:34.544Z,8.80
2022-11-09T19:23:56.804Z,8.80
2022-11-09T19:28:15.301Z,8.80
2022-11-09T19:32:33.991Z,8.80
2022-11-09T19:36:52.947Z,8.80
2022-11-09T19:41:14.555Z,8.80
2022-11-09T19:45:32.996Z,8.70
2022-11-09T19:49:51.871Z,8.70
2022-11-09T19:54:10.965Z,8.70
2022-11-09T19:58:31.994Z,8.70
2022-11-09T20:02:53.275Z,8.70
2022-11-09T20:07:12.560Z,8.60
2022-11-09T20:11:48.430Z,8.60
2022-11-09T20:16:13.234Z,8.60
2022-11-09T20:20:35.155Z,8.50
2022-11-09T20:25:04.962Z,8.60
2022-11-09T20:29:36.955Z,8.50
2022-11-09T20:34:03.170Z,8.50
2022-11-09T20:38:23.212Z,8.50
2022-11-09T20:42:42.728Z,8.60
2022-11-09T20:47:01.993Z,8.50
2022-11-09T20:51:29.081Z,8.60
2022-11-09T20:55:50.961Z,8.50
2022-11-09T21:06:05.073Z,8.60
2022-11-09T21:10:26.961Z,8.60
2022-11-09T21:14:45.638Z,8.60
2022-11-09T21:19:04.596Z,8.60
2022-11-09T21:23:39.074Z,8.60
2022-11-09T21:28:24.285Z,8.60
2022-11-09T21:32:43.870Z,8.70
2022-11-09T21:37:02.560Z,8.70
2022-11-09T21:41:33.955Z,8.60
2022-11-09T21:45:56.508Z,8.70
2022-11-09T21:50:15.546Z,8.70
2022-11-09T21:54:34.152Z,8.70
2022-11-09T21:58:53.154Z,8.70
2022-11-09T22:03:14.629Z,8.70
2022-11-09T22:07:32.984Z,8.70
2022-11-09T22:12:04.068Z,8.70
2022-11-09T22:16:26.340Z,8.60
2022-11-09T22:20:59.328Z,8.60
2022-11-09T22:25:18.316Z,8.70
2022-11-09T22:29:36.782Z,8.70
2022-11-09T22:33:56.369Z,8.60
2022-11-09T22:38:17.787Z,8.70
2022-11-09T22:42:36.770Z,8.70
2022-11-09T22:46:55.777Z,8.80
2022-11-09T22:51:17.202Z,8.80
2022-11-09T22:55:38.653Z,8.80
2022-11-09T22:59:57.113Z,8.80
2022-11-09T23:04:15.955Z,8.80
2022-11-09T23:08:38.168Z,8.80
2022-11-09T23:13:01.615Z,8.80
2022-11-09T23:17:32.629Z,8.80
2022-11-09T23:21:51.480Z,8.80
2022-11-09T23:26:11.633Z,8.80
2022-11-09T23:30:32.984Z,8.80
2022-11-09T23:34:51.496Z,8.80
2022-11-09T23:39:10.609Z,8.80
2022-11-09T23:43:29.132Z,8.80
2022-11-09T23:47:50.338Z,8.80
2022-11-09T23:52:09.201Z,8.90
2022-11-09T23:56:27.840Z,8.90
